sensor_id;sensor_type;location;lat;lon;timestamp;temperature;humidity
45383;DHT22;42455;51.660;5.824;2024-03-25T00:03:27;8.2;94.0
45383;DHT22;42455;51.660;5.824;2024-03-25T00:08:34;8.1;94.0
45383;DHT22;42455;51.660;5.824;2024-03-25T00:13:40;8.1;94.0
45383;DHT22;42455;51.660;5.824;2024-03-25T00:18:46;8.0;94.0
45383;DHT22;42455;51.660;5.824;2024-03-25T00:23:52;8.0;94.0
45383;DHT22;42455;51.660;5.824;2024-03-25T00:28:59;7.9;94.0
45383;DHT22;42455;51.660;5.824;2024-03-25T00:34:05;7.9;94.0
45383;DHT22;42455;51.660;5.824;2024-03-25T00:39:11;7.8;94.0
45383;DHT22;42455;51.660;5.824;2024-03-25T00:44:17;7.8;94.0
45383;DHT22;42455;51.660;5.824;2024-03-25T00:49:23;7.7;94.0
45383;DHT22;42455;51.660;5.824;2024-03-25T00:54:30;7.7;94.0
45383;DHT22;42455;51.660;5.824;2024-03-25T00:59:36;7.6;94.0
45383;DHT22;42455;51.660;5.824;2024-03-25T01:04:42;7.5;94.0
45383;DHT22;42455;51.660;5.824;2024-03-25T01:09:48;7.5;94.0
45383;DHT22;42455;51.660;5.824;2024-03-25T01:14:54;7.4;94.0
45383;DHT22;42455;51.660;5.824;2024-03-25T01:20:01;7.3;94.5
45383;DHT22;42455;51.660;5.824;2024-03-25T01:25:07;7.3;94.0
45383;DHT22;42455;51.660;5.824;2024-03-25T01:30:13;7.2;94.0
45383;DHT22;42455;51.660;5.824;2024-03-25T01:35:19;7.1;94.5
45383;DHT22;42455;51.660;5.824;2024-03-25T01:40:25;7.1;94.5
45383;DHT22;42455;51.660;5.824;2024-03-25T01:45:33;7.0;94.5
45383;DHT22;42455;51.660;5.824;2024-03-25T01:50:42;7.0;94.5
45383;DHT22;42455;51.660;5.824;2024-03-25T01:55:44;6.9;94.5
45383;DHT22;42455;51.660;5.824;2024-03-25T02:00:51;6.9;94.5
45383;DHT22;42455;51.660;5.824;2024-03-25T02:05:59;6.8;94.5
45383;DHT22;42455;51.660;5.824;2024-03-25T02:11:03;6.7;94.5
45383;DHT22;42455;51.660;5.824;2024-03-25T02:16:09;6.7;95.0
45383;DHT22;42455;51.660;5.824;2024-03-25T02:21:15;6.7;95.0
45383;DHT22;42455;51.660;5.824;2024-03-25T02:26:21;6.7;95.0
45383;DHT22;42455;51.660;5.824;2024-03-25T02:31:28;6.7;95.0
45383;DHT22;42455;51.660;5.824;2024-03-25T02:36:34;6.7;95.0
45383;DHT22;42455;51.660;5.824;2024-03-25T02:41:40;6.7;95.5
45383;DHT22;42455;51.660;5.824;2024-03-25T02:46:47;6.7;95.5
45383;DHT22;42455;51.660;5.824;2024-03-25T02:51:52;6.8;95.5
45383;DHT22;42455;51.660;5.824;2024-03-25T02:56:58;6.8;95.5
45383;DHT22;42455;51.660;5.824;2024-03-25T03:02:05;6.8;95.5
45383;DHT22;42455;51.660;5.824;2024-03-25T03:07:11;6.8;95.5
45383;DHT22;42455;51.660;5.824;2024-03-25T03:12:17;6.8;95.5
45383;DHT22;42455;51.660;5.824;2024-03-25T03:17:23;6.8;95.5
45383;DHT22;42455;51.660;5.824;2024-03-25T03:22:30;6.8;95.5
45383;DHT22;42455;51.660;5.824;2024-03-25T03:27:36;6.8;95.5
45383;DHT22;42455;51.660;5.824;2024-03-25T03:32:42;6.8;95.5
45383;DHT22;42455;51.660;5.824;2024-03-25T03:37:48;6.8;95.5
45383;DHT22;42455;51.660;5.824;2024-03-25T03:42:55;6.8;95.5
45383;DHT22;42455;51.660;5.824;2024-03-25T03:48:01;6.8;95.5
45383;DHT22;42455;51.660;5.824;2024-03-25T03:53:07;6.7;95.5
45383;DHT22;42455;51.660;5.824;2024-03-25T03:58:13;6.7;95.5
45383;DHT22;42455;51.660;5.824;2024-03-25T04:03:20;6.7;95.5
45383;DHT22;42455;51.660;5.824;2024-03-25T04:08:25;6.6;95.5
45383;DHT22;42455;51.660;5.824;2024-03-25T04:13:32;6.6;95.0
45383;DHT22;42455;51.660;5.824;2024-03-25T04:18:38;6.5;95.0
45383;DHT22;42455;51.660;5.824;2024-03-25T04:23:44;6.5;95.0
45383;DHT22;42455;51.660;5.824;2024-03-25T04:28:50;6.4;95.0
45383;DHT22;42455;51.660;5.824;2024-03-25T04:33:56;6.3;95.0
45383;DHT22;42455;51.660;5.824;2024-03-25T04:39:03;6.3;95.0
45383;DHT22;42455;51.660;5.824;2024-03-25T04:44:09;6.2;95.0
45383;DHT22;42455;51.660;5.824;2024-03-25T04:49:15;6.2;95.0
45383;DHT22;42455;51.660;5.824;2024-03-25T04:54:20;6.1;95.0
45383;DHT22;42455;51.660;5.824;2024-03-25T04:59:27;6.0;95.0
45383;DHT22;42455;51.660;5.824;2024-03-25T05:04:33;6.0;95.0
45383;DHT22;42455;51.660;5.824;2024-03-25T05:09:39;6.0;95.0
45383;DHT22;42455;51.660;5.824;2024-03-25T05:14:45;5.9;95.0
45383;DHT22;42455;51.660;5.824;2024-03-25T05:19:51;5.9;95.0
45383;DHT22;42455;51.660;5.824;2024-03-25T05:24:58;5.8;95.0
45383;DHT22;42455;51.660;5.824;2024-03-25T05:30:04;5.8;95.0
45383;DHT22;42455;51.660;5.824;2024-03-25T05:35:10;5.7;95.5
45383;DHT22;42455;51.660;5.824;2024-03-25T05:40:16;5.7;95.5
45383;DHT22;42455;51.660;5.824;2024-03-25T05:45:22;5.6;95.5
45383;DHT22;42455;51.660;5.824;2024-03-25T05:50:29;5.6;95.5
45383;DHT22;42455;51.660;5.824;2024-03-25T05:55:35;5.6;95.5
45383;DHT22;42455;51.660;5.824;2024-03-25T06:00:41;5.5;95.5
45383;DHT22;42455;51.660;5.824;2024-03-25T06:05:48;5.5;95.5
45383;DHT22;42455;51.660;5.824;2024-03-25T06:10:53;5.5;95.5
45383;DHT22;42455;51.660;5.824;2024-03-25T06:16:00;5.5;95.5
45383;DHT22;42455;51.660;5.824;2024-03-25T06:21:06;5.5;96.0
45383;DHT22;42455;51.660;5.824;2024-03-25T06:26:12;5.5;96.0
45383;DHT22;42455;51.660;5.824;2024-03-25T06:31:18;5.5;96.0
45383;DHT22;42455;51.660;5.824;2024-03-25T06:36:24;5.6;96.5
45383;DHT22;42455;51.660;5.824;2024-03-25T06:41:31;5.8;97.0
45383;DHT22;42455;51.660;5.824;2024-03-25T06:46:37;6.0;97.0
45383;DHT22;42455;51.660;5.824;2024-03-25T06:51:43;6.2;97.5
45383;DHT22;42455;51.660;5.824;2024-03-25T06:56:49;6.5;97.5
45383;DHT22;42455;51.660;5.824;2024-03-25T07:01:56;6.7;98.0
45383;DHT22;42455;51.660;5.824;2024-03-25T07:07:02;7.0;98.0
45383;DHT22;42455;51.660;5.824;2024-03-25T07:12:08;7.2;98.5
45383;DHT22;42455;51.660;5.824;2024-03-25T07:17:14;7.5;98.5
45383;DHT22;42455;51.660;5.824;2024-03-25T07:22:20;7.8;98.5
45383;DHT22;42455;51.660;5.824;2024-03-25T07:27:27;8.1;98.0
45383;DHT22;42455;51.660;5.824;2024-03-25T07:32:33;8.4;98.0
45383;DHT22;42455;51.660;5.824;2024-03-25T07:37:39;8.7;98.0
45383;DHT22;42455;51.660;5.824;2024-03-25T07:42:45;9.0;97.5
45383;DHT22;42455;51.660;5.824;2024-03-25T07:47:51;9.2;97.0
45383;DHT22;42455;51.660;5.824;2024-03-25T07:52:58;9.4;97.0
45383;DHT22;42455;51.660;5.824;2024-03-25T07:58:04;9.5;96.5
45383;DHT22;42455;51.660;5.824;2024-03-25T08:03:10;9.7;96.5
45383;DHT22;42455;51.660;5.824;2024-03-25T08:08:16;9.8;96.5
45383;DHT22;42455;51.660;5.824;2024-03-25T08:13:22;10.1;96.5
45383;DHT22;42455;51.660;5.824;2024-03-25T08:18:29;10.2;96.0
45383;DHT22;42455;51.660;5.824;2024-03-25T08:23:35;10.4;96.0
45383;DHT22;42455;51.660;5.824;2024-03-25T08:28:41;10.6;95.5
45383;DHT22;42455;51.660;5.824;2024-03-25T08:33:47;10.8;95.5
45383;DHT22;42455;51.660;5.824;2024-03-25T08:38:53;11.0;95.0
45383;DHT22;42455;51.660;5.824;2024-03-25T08:44:00;11.2;95.0
45383;DHT22;42455;51.660;5.824;2024-03-25T08:49:06;11.3;95.0
45383;DHT22;42455;51.660;5.824;2024-03-25T08:54:12;11.5;94.5
45383;DHT22;42455;51.660;5.824;2024-03-25T08:59:18;11.7;94.0
45383;DHT22;42455;51.660;5.824;2024-03-25T09:04:25;11.8;93.5
45383;DHT22;42455;51.660;5.824;2024-03-25T09:09:31;12.0;93.0
45383;DHT22;42455;51.660;5.824;2024-03-25T09:14:37;12.1;93.0
45383;DHT22;42455;51.660;5.824;2024-03-25T09:19:43;12.2;92.5
45383;DHT22;42455;51.660;5.824;2024-03-25T09:24:49;12.4;92.5
45383;DHT22;42455;51.660;5.824;2024-03-25T09:29:56;12.5;92.0
45383;DHT22;42455;51.660;5.824;2024-03-25T09:35:02;12.7;91.5
45383;DHT22;42455;51.660;5.824;2024-03-25T09:40:08;12.8;91.0
45383;DHT22;42455;51.660;5.824;2024-03-25T09:45:16;12.9;90.0
45383;DHT22;42455;51.660;5.824;2024-03-25T09:50:21;13.0;90.0
45383;DHT22;42455;51.660;5.824;2024-03-25T09:55:27;12.9;89.0
45383;DHT22;42455;51.660;5.824;2024-03-25T10:00:33;12.8;89.0
45383;DHT22;42455;51.660;5.824;2024-03-25T10:05:39;12.9;89.5
45383;DHT22;42455;51.660;5.824;2024-03-25T10:10:45;13.1;89.5
45383;DHT22;42455;51.660;5.824;2024-03-25T10:15:51;13.2;90.0
45383;DHT22;42455;51.660;5.824;2024-03-25T10:20:58;13.4;88.5
45383;DHT22;42455;51.660;5.824;2024-03-25T10:26:03;13.4;88.0
45383;DHT22;42455;51.660;5.824;2024-03-25T10:31:09;13.5;87.5
45383;DHT22;42455;51.660;5.824;2024-03-25T10:36:16;13.5;87.0
45383;DHT22;42455;51.660;5.824;2024-03-25T10:41:23;13.5;86.5
45383;DHT22;42455;51.660;5.824;2024-03-25T10:46:28;13.4;86.5
45383;DHT22;42455;51.660;5.824;2024-03-25T10:51:34;13.4;86.0
45383;DHT22;42455;51.660;5.824;2024-03-25T10:56:40;13.4;86.0
45383;DHT22;42455;51.660;5.824;2024-03-25T11:01:46;13.5;86.0
45383;DHT22;42455;51.660;5.824;2024-03-25T11:06:53;13.6;86.0
45383;DHT22;42455;51.660;5.824;2024-03-25T11:17:14;13.8;85.0
45383;DHT22;42455;51.660;5.824;2024-03-25T11:22:11;13.9;85.0
45383;DHT22;42455;51.660;5.824;2024-03-25T11:27:21;14.1;85.0
45383;DHT22;42455;51.660;5.824;2024-03-25T11:32:24;14.2;85.0
45383;DHT22;42455;51.660;5.824;2024-03-25T11:37:30;14.4;83.0
45383;DHT22;42455;51.660;5.824;2024-03-25T11:42:37;14.5;82.5
45383;DHT22;42455;51.660;5.824;2024-03-25T11:47:43;14.4;82.0
45383;DHT22;42455;51.660;5.824;2024-03-25T11:52:49;14.6;82.0
45383;DHT22;42455;51.660;5.824;2024-03-25T11:57:55;14.7;82.0
45383;DHT22;42455;51.660;5.824;2024-03-25T12:03:01;14.8;81.5
45383;DHT22;42455;51.660;5.824;2024-03-25T12:08:08;14.8;80.5
45383;DHT22;42455;51.660;5.824;2024-03-25T12:13:13;14.8;80.0
45383;DHT22;42455;51.660;5.824;2024-03-25T12:18:20;14.8;79.0
45383;DHT22;42455;51.660;5.824;2024-03-25T12:23:28;14.7;79.0
45383;DHT22;42455;51.660;5.824;2024-03-25T12:28:32;14.7;78.5
45383;DHT22;42455;51.660;5.824;2024-03-25T12:33:42;14.6;78.0
45383;DHT22;42455;51.660;5.824;2024-03-25T12:38:53;14.5;77.0
45383;DHT22;42455;51.660;5.824;2024-03-25T12:43:51;14.5;77.0
45383;DHT22;42455;51.660;5.824;2024-03-25T12:48:57;14.4;76.0
45383;DHT22;42455;51.660;5.824;2024-03-25T12:54:03;14.3;76.0
45383;DHT22;42455;51.660;5.824;2024-03-25T12:59:09;14.3;75.5
45383;DHT22;42455;51.660;5.824;2024-03-25T13:04:15;14.3;75.5
45383;DHT22;42455;51.660;5.824;2024-03-25T13:09:22;14.5;76.0
45383;DHT22;42455;51.660;5.824;2024-03-25T13:14:28;14.6;75.0
45383;DHT22;42455;51.660;5.824;2024-03-25T13:19:34;14.8;75.5
45383;DHT22;42455;51.660;5.824;2024-03-25T13:24:40;15.0;75.0
45383;DHT22;42455;51.660;5.824;2024-03-25T13:29:47;15.2;74.5
45383;DHT22;42455;51.660;5.824;2024-03-25T13:34:53;15.4;73.0
45383;DHT22;42455;51.660;5.824;2024-03-25T13:39:59;15.5;71.5
45383;DHT22;42455;51.660;5.824;2024-03-25T13:45:05;15.6;70.5
45383;DHT22;42455;51.660;5.824;2024-03-25T13:50:11;15.5;70.0
45383;DHT22;42455;51.660;5.824;2024-03-25T13:55:18;15.5;69.5
45383;DHT22;42455;51.660;5.824;2024-03-25T14:00:24;15.4;69.0
45383;DHT22;42455;51.660;5.824;2024-03-25T14:05:30;15.3;68.5
45383;DHT22;42455;51.660;5.824;2024-03-25T14:10:36;15.2;68.5
45383;DHT22;42455;51.660;5.824;2024-03-25T14:15:42;15.1;69.0
45383;DHT22;42455;51.660;5.824;2024-03-25T14:20:51;15.0;69.0
45383;DHT22;42455;51.660;5.824;2024-03-25T14:25:55;14.9;69.0
45383;DHT22;42455;51.660;5.824;2024-03-25T14:31:01;14.9;69.0
45383;DHT22;42455;51.660;5.824;2024-03-25T14:36:07;14.9;69.0
45383;DHT22;42455;51.660;5.824;2024-03-25T14:41:18;15.0;69.0
45383;DHT22;42455;51.660;5.824;2024-03-25T14:46:20;15.1;68.0
45383;DHT22;42455;51.660;5.824;2024-03-25T14:51:26;15.2;68.5
45383;DHT22;42455;51.660;5.824;2024-03-25T14:56:32;15.4;69.0
45383;DHT22;42455;51.660;5.824;2024-03-25T15:01:38;15.5;68.5
45383;DHT22;42455;51.660;5.824;2024-03-25T15:06:44;15.7;68.0
45383;DHT22;42455;51.660;5.824;2024-03-25T15:11:51;15.8;67.5
45383;DHT22;42455;51.660;5.824;2024-03-25T15:16:57;15.9;67.0
45383;DHT22;42455;51.660;5.824;2024-03-25T15:22:03;16.0;66.5
45383;DHT22;42455;51.660;5.824;2024-03-25T15:27:09;16.1;66.0
45383;DHT22;42455;51.660;5.824;2024-03-25T15:32:16;16.1;66.5
45383;DHT22;42455;51.660;5.824;2024-03-25T15:37:22;16.1;65.5
45383;DHT22;42455;51.660;5.824;2024-03-25T15:42:28;16.1;65.0
45383;DHT22;42455;51.660;5.824;2024-03-25T15:52:40;16.0;66.0
45383;DHT22;42455;51.660;5.824;2024-03-25T15:57:46;16.1;66.0
45383;DHT22;42455;51.660;5.824;2024-03-25T16:02:52;16.0;65.5
45383;DHT22;42455;51.660;5.824;2024-03-25T16:07:58;16.0;65.0
45383;DHT22;42455;51.660;5.824;2024-03-25T16:13:04;15.9;65.0
45383;DHT22;42455;51.660;5.824;2024-03-25T16:18:10;15.8;65.5
45383;DHT22;42455;51.660;5.824;2024-03-25T16:23:17;15.7;65.5
45383;DHT22;42455;51.660;5.824;2024-03-25T16:28:22;15.7;65.5
45383;DHT22;42455;51.660;5.824;2024-03-25T16:33:28;15.6;65.5
45383;DHT22;42455;51.660;5.824;2024-03-25T16:38:34;15.5;65.5
45383;DHT22;42455;51.660;5.824;2024-03-25T16:43:40;15.4;65.5
45383;DHT22;42455;51.660;5.824;2024-03-25T16:48:47;15.3;65.5
45383;DHT22;42455;51.660;5.824;2024-03-25T16:53:53;15.2;65.0
45383;DHT22;42455;51.660;5.824;2024-03-25T16:58:59;15.1;65.0
45383;DHT22;42455;51.660;5.824;2024-03-25T17:04:05;14.9;65.0
45383;DHT22;42455;51.660;5.824;2024-03-25T17:09:12;14.7;65.0
45383;DHT22;42455;51.660;5.824;2024-03-25T17:14:18;14.6;65.0
45383;DHT22;42455;51.660;5.824;2024-03-25T17:19:24;14.4;65.5
45383;DHT22;42455;51.660;5.824;2024-03-25T17:24:30;14.2;65.5
45383;DHT22;42455;51.660;5.824;2024-03-25T17:29:36;14.0;65.5
45383;DHT22;42455;51.660;5.824;2024-03-25T17:34:43;13.9;65.5
45383;DHT22;42455;51.660;5.824;2024-03-25T17:39:49;13.7;66.0
45383;DHT22;42455;51.660;5.824;2024-03-25T17:44:55;13.5;66.5
45383;DHT22;42455;51.660;5.824;2024-03-25T17:50:01;13.4;66.5
45383;DHT22;42455;51.660;5.824;2024-03-25T17:55:08;13.2;66.5
45383;DHT22;42455;51.660;5.824;2024-03-25T18:00:14;13.1;67.0
45383;DHT22;42455;51.660;5.824;2024-03-25T18:05:20;12.9;67.5
45383;DHT22;42455;51.660;5.824;2024-03-25T18:10:26;12.7;68.0
45383;DHT22;42455;51.660;5.824;2024-03-25T18:15:32;12.6;68.0
45383;DHT22;42455;51.660;5.824;2024-03-25T18:20:38;12.4;68.5
45383;DHT22;42455;51.660;5.824;2024-03-25T18:25:45;12.3;69.0
45383;DHT22;42455;51.660;5.824;2024-03-25T18:30:54;12.1;69.0
45383;DHT22;42455;51.660;5.824;2024-03-25T18:35:59;12.0;69.5
45383;DHT22;42455;51.660;5.824;2024-03-25T18:41:04;11.8;70.0
45383;DHT22;42455;51.660;5.824;2024-03-25T18:46:09;11.7;70.0
45383;DHT22;42455;51.660;5.824;2024-03-25T18:51:16;11.6;70.5
45383;DHT22;42455;51.660;5.824;2024-03-25T18:56:22;11.5;70.5
45383;DHT22;42455;51.660;5.824;2024-03-25T19:01:28;11.4;70.5
45383;DHT22;42455;51.660;5.824;2024-03-25T19:06:34;11.3;71.0
45383;DHT22;42455;51.660;5.824;2024-03-25T19:11:40;11.2;71.0
45383;DHT22;42455;51.660;5.824;2024-03-25T19:16:47;11.1;71.5
45383;DHT22;42455;51.660;5.824;2024-03-25T19:21:53;11.0;71.5
45383;DHT22;42455;51.660;5.824;2024-03-25T19:26:59;10.9;72.0
45383;DHT22;42455;51.660;5.824;2024-03-25T19:32:06;10.9;72.0
45383;DHT22;42455;51.660;5.824;2024-03-25T19:37:12;10.8;72.0
45383;DHT22;42455;51.660;5.824;2024-03-25T19:42:18;10.7;72.5
45383;DHT22;42455;51.660;5.824;2024-03-25T19:47:24;10.6;72.5
45383;DHT22;42455;51.660;5.824;2024-03-25T19:52:30;10.5;72.5
45383;DHT22;42455;51.660;5.824;2024-03-25T19:57:36;10.4;73.0
45383;DHT22;42455;51.660;5.824;2024-03-25T20:02:43;10.4;73.5
45383;DHT22;42455;51.660;5.824;2024-03-25T20:07:49;10.3;73.5
45383;DHT22;42455;51.660;5.824;2024-03-25T20:12:55;10.2;74.0
45383;DHT22;42455;51.660;5.824;2024-03-25T20:18:01;10.2;74.0
45383;DHT22;42455;51.660;5.824;2024-03-25T20:23:08;10.1;74.5
45383;DHT22;42455;51.660;5.824;2024-03-25T20:28:14;10.0;74.5
45383;DHT22;42455;51.660;5.824;2024-03-25T20:33:20;9.9;75.0
45383;DHT22;42455;51.660;5.824;2024-03-25T20:38:26;9.9;75.0
45383;DHT22;42455;51.660;5.824;2024-03-25T20:43:32;9.8;75.5
45383;DHT22;42455;51.660;5.824;2024-03-25T20:48:38;9.7;75.5
45383;DHT22;42455;51.660;5.824;2024-03-25T20:53:45;9.7;75.5
45383;DHT22;42455;51.660;5.824;2024-03-25T20:58:51;9.6;76.0
45383;DHT22;42455;51.660;5.824;2024-03-25T21:03:57;9.6;76.5
45383;DHT22;42455;51.660;5.824;2024-03-25T21:09:03;9.5;76.5
45383;DHT22;42455;51.660;5.824;2024-03-25T21:14:09;9.4;76.5
45383;DHT22;42455;51.660;5.824;2024-03-25T21:19:16;9.4;77.0
45383;DHT22;42455;51.660;5.824;2024-03-25T21:24:22;9.4;77.0
45383;DHT22;42455;51.660;5.824;2024-03-25T21:34:34;9.3;77.5
45383;DHT22;42455;51.660;5.824;2024-03-25T21:39:41;9.2;77.5
45383;DHT22;42455;51.660;5.824;2024-03-25T21:44:47;9.2;78.0
45383;DHT22;42455;51.660;5.824;2024-03-25T21:49:53;9.1;78.0
45383;DHT22;42455;51.660;5.824;2024-03-25T21:54:59;9.1;78.0
45383;DHT22;42455;51.660;5.824;2024-03-25T22:00:05;9.0;78.5
45383;DHT22;42455;51.660;5.824;2024-03-25T22:05:11;9.0;78.5
45383;DHT22;42455;51.660;5.824;2024-03-25T22:10:17;9.0;78.5
45383;DHT22;42455;51.660;5.824;2024-03-25T22:15:23;9.0;79.0
45383;DHT22;42455;51.660;5.824;2024-03-25T22:20:29;8.9;79.0
45383;DHT22;42455;51.660;5.824;2024-03-25T22:25:35;8.9;79.0
45383;DHT22;42455;51.660;5.824;2024-03-25T22:30:42;8.9;79.0
45383;DHT22;42455;51.660;5.824;2024-03-25T22:35:52;8.8;79.5
45383;DHT22;42455;51.660;5.824;2024-03-25T22:40:54;8.8;79.5
45383;DHT22;42455;51.660;5.824;2024-03-25T22:46:01;8.8;79.5
45383;DHT22;42455;51.660;5.824;2024-03-25T22:51:07;8.7;79.5
45383;DHT22;42455;51.660;5.824;2024-03-25T22:56:13;8.7;80.0
45383;DHT22;42455;51.660;5.824;2024-03-25T23:01:19;8.6;80.0
45383;DHT22;42455;51.660;5.824;2024-03-25T23:06:25;8.6;80.0
45383;DHT22;42455;51.660;5.824;2024-03-25T23:11:31;8.6;80.5
45383;DHT22;42455;51.660;5.824;2024-03-25T23:16:37;8.5;80.5
45383;DHT22;42455;51.660;5.824;2024-03-25T23:21:44;8.5;80.5
45383;DHT22;42455;51.660;5.824;2024-03-25T23:26:50;8.5;80.5
45383;DHT22;42455;51.660;5.824;2024-03-25T23:31:56;8.5;81.0
45383;DHT22;42455;51.660;5.824;2024-03-25T23:37:02;8.4;81.0
45383;DHT22;42455;51.660;5.824;2024-03-25T23:42:09;8.4;81.0
45383;DHT22;42455;51.660;5.824;2024-03-25T23:47:15;8.4;81.0
45383;DHT22;42455;51.660;5.824;2024-03-25T23:52:21;8.4;81.0
45383;DHT22;42455;51.660;5.824;2024-03-25T23:57:27;8.4;81.5
